Terminal Aerodrome Forecast
Issued by NWS Norman, OK

Home | Current Version | Previous Version | Text Only | Print | Product List | Glossary On
Versions: 1 2 3 4 5 6 7 8 9 10 11 12 13 14 15 16 17 18 19 20 21 22 23 24 25 26 27 28 29 30 31 32 33 34 35 36
633
FTUS44 KOUN 272320
TAFOKC
TAF
KOKC 272320Z 2800/2824 17010KT P6SM VCTS BKN045CB
      TEMPO 2800/2801 21020G32KT 2SM +TSRA SCT015 OVC045CB
     FM280100 17010KT P6SM SCT100
     FM280600 18007KT 4SM BR SCT007
     FM281600 19007KT P6SM SCT035=

USA.gov is the U.S. government's official web portal to all federal, state and local government web resources and services.